sensor_id;sensor_type;location;lat;lon;timestamp;temperature;humidity
72277;SHT30;61204;49.980;8.358;2023-06-19T00:01:31;23.82;50.77
72277;SHT30;61204;49.980;8.358;2023-06-19T00:03:56;23.88;50.68
72277;SHT30;61204;49.980;8.358;2023-06-19T00:06:22;23.89;50.37
72277;SHT30;61204;49.980;8.358;2023-06-19T00:08:47;23.93;50.40
72277;SHT30;61204;49.980;8.358;2023-06-19T00:11:13;23.92;50.59
72277;SHT30;61204;49.980;8.358;2023-06-19T00:13:38;23.88;50.57
72277;SHT30;61204;49.980;8.358;2023-06-19T00:16:04;23.86;50.77
72277;SHT30;61204;49.980;8.358;2023-06-19T00:18:30;23.79;51.08
72277;SHT30;61204;49.980;8.358;2023-06-19T00:20:56;23.75;51.31
72277;SHT30;61204;49.980;8.358;2023-06-19T00:23:22;23.69;51.52
72277;SHT30;61204;49.980;8.358;2023-06-19T00:25:48;23.62;51.71
72277;SHT30;61204;49.980;8.358;2023-06-19T00:28:14;23.54;52.16
72277;SHT30;61204;49.980;8.358;2023-06-19T00:30:44;23.55;52.20
72277;SHT30;61204;49.980;8.358;2023-06-19T00:33:10;23.66;52.00
72277;SHT30;61204;49.980;8.358;2023-06-19T00:35:35;23.71;52.27
72277;SHT30;61204;49.980;8.358;2023-06-19T00:38:01;23.68;53.17
72277;SHT30;61204;49.980;8.358;2023-06-19T00:40:31;23.51;52.09
72277;SHT30;61204;49.980;8.358;2023-06-19T00:42:58;23.74;50.85
72277;SHT30;61204;49.980;8.358;2023-06-19T00:45:25;23.65;50.59
72277;SHT30;61204;49.980;8.358;2023-06-19T00:47:52;23.61;52.13
72277;SHT30;61204;49.980;8.358;2023-06-19T00:50:22;23.93;51.38
72277;SHT30;61204;49.980;8.358;2023-06-19T00:52:53;23.72;52.09
72277;SHT30;61204;49.980;8.358;2023-06-19T00:55:19;23.54;52.39
72277;SHT30;61204;49.980;8.358;2023-06-19T00:57:46;23.43;52.89
72277;SHT30;61204;49.980;8.358;2023-06-19T01:00:12;23.30;53.12
72277;SHT30;61204;49.980;8.358;2023-06-19T01:02:38;23.19;53.64
72277;SHT30;61204;49.980;8.358;2023-06-19T01:05:06;23.06;53.95
72277;SHT30;61204;49.980;8.358;2023-06-19T01:07:45;22.99;53.93
72277;SHT30;61204;49.980;8.358;2023-06-19T01:10:27;22.91;54.24
72277;SHT30;61204;49.980;8.358;2023-06-19T01:13:07;22.84;54.92
72277;SHT30;61204;49.980;8.358;2023-06-19T01:15:41;22.81;55.05
72277;SHT30;61204;49.980;8.358;2023-06-19T01:18:07;22.78;55.54
72277;SHT30;61204;49.980;8.358;2023-06-19T01:20:37;22.81;55.80
72277;SHT30;61204;49.980;8.358;2023-06-19T01:23:09;22.78;55.76
72277;SHT30;61204;49.980;8.358;2023-06-19T01:25:37;22.69;56.08
72277;SHT30;61204;49.980;8.358;2023-06-19T01:28:03;22.62;56.59
72277;SHT30;61204;49.980;8.358;2023-06-19T01:30:31;22.58;56.72
72277;SHT30;61204;49.980;8.358;2023-06-19T01:33:00;22.49;56.83
72277;SHT30;61204;49.980;8.358;2023-06-19T01:35:35;22.41;57.14
72277;SHT30;61204;49.980;8.358;2023-06-19T01:38:02;22.33;57.01
72277;SHT30;61204;49.980;8.358;2023-06-19T01:40:29;22.23;57.38
72277;SHT30;61204;49.980;8.358;2023-06-19T01:42:59;22.14;57.72
72277;SHT30;61204;49.980;8.358;2023-06-19T01:45:30;22.09;57.89
72277;SHT30;61204;49.980;8.358;2023-06-19T01:47:56;22.30;58.32
72277;SHT30;61204;49.980;8.358;2023-06-19T01:50:23;22.43;58.63
72277;SHT30;61204;49.980;8.358;2023-06-19T01:52:55;22.23;59.37
72277;SHT30;61204;49.980;8.358;2023-06-19T01:55:21;22.06;58.97
72277;SHT30;61204;49.980;8.358;2023-06-19T01:57:48;21.97;58.71
72277;SHT30;61204;49.980;8.358;2023-06-19T02:00:19;22.14;57.12
72277;SHT30;61204;49.980;8.358;2023-06-19T02:02:45;22.29;56.43
72277;SHT30;61204;49.980;8.358;2023-06-19T02:05:11;22.29;56.31
72277;SHT30;61204;49.980;8.358;2023-06-19T02:07:36;22.33;56.40
72277;SHT30;61204;49.980;8.358;2023-06-19T02:10:02;22.20;56.72
72277;SHT30;61204;49.980;8.358;2023-06-19T02:12:27;22.07;57.58
72277;SHT30;61204;49.980;8.358;2023-06-19T02:14:53;22.02;57.97
72277;SHT30;61204;49.980;8.358;2023-06-19T02:17:21;22.00;57.93
72277;SHT30;61204;49.980;8.358;2023-06-19T02:19:46;21.95;58.10
72277;SHT30;61204;49.980;8.358;2023-06-19T02:22:14;21.90;58.19
72277;SHT30;61204;49.980;8.358;2023-06-19T02:24:39;21.99;57.86
72277;SHT30;61204;49.980;8.358;2023-06-19T02:27:05;21.90;58.03
72277;SHT30;61204;49.980;8.358;2023-06-19T02:29:34;21.85;58.36
72277;SHT30;61204;49.980;8.358;2023-06-19T02:32:00;21.79;58.42
72277;SHT30;61204;49.980;8.358;2023-06-19T02:34:26;21.72;58.67
72277;SHT30;61204;49.980;8.358;2023-06-19T02:36:51;21.68;58.71
72277;SHT30;61204;49.980;8.358;2023-06-19T02:39:20;21.66;59.18
72277;SHT30;61204;49.980;8.358;2023-06-19T02:41:48;21.58;59.96
72277;SHT30;61204;49.980;8.358;2023-06-19T02:44:15;21.62;59.66
72277;SHT30;61204;49.980;8.358;2023-06-19T02:46:46;21.71;59.14
72277;SHT30;61204;49.980;8.358;2023-06-19T02:49:11;21.88;58.84
72277;SHT30;61204;49.980;8.358;2023-06-19T02:51:37;21.85;58.83
72277;SHT30;61204;49.980;8.358;2023-06-19T02:54:02;21.85;59.10
72277;SHT30;61204;49.980;8.358;2023-06-19T02:56:28;21.76;59.25
72277;SHT30;61204;49.980;8.358;2023-06-19T02:58:53;21.74;59.50
72277;SHT30;61204;49.980;8.358;2023-06-19T03:01:19;21.66;59.57
72277;SHT30;61204;49.980;8.358;2023-06-19T03:03:44;21.62;60.05
72277;SHT30;61204;49.980;8.358;2023-06-19T03:06:11;21.63;60.54
72277;SHT30;61204;49.980;8.358;2023-06-19T03:08:38;21.72;60.79
72277;SHT30;61204;49.980;8.358;2023-06-19T03:11:04;21.88;60.66
72277;SHT30;61204;49.980;8.358;2023-06-19T03:13:52;21.83;61.33
72277;SHT30;61204;49.980;8.358;2023-06-19T03:16:21;21.66;61.82
72277;SHT30;61204;49.980;8.358;2023-06-19T03:18:49;21.59;62.36
72277;SHT30;61204;49.980;8.358;2023-06-19T03:21:17;21.49;62.45
72277;SHT30;61204;49.980;8.358;2023-06-19T03:23:44;21.45;62.87
72277;SHT30;61204;49.980;8.358;2023-06-19T03:26:14;21.42;63.15
72277;SHT30;61204;49.980;8.358;2023-06-19T03:28:44;21.45;63.22
72277;SHT30;61204;49.980;8.358;2023-06-19T03:31:12;21.37;63.63
72277;SHT30;61204;49.980;8.358;2023-06-19T03:33:40;21.37;63.69
72277;SHT30;61204;49.980;8.358;2023-06-19T03:36:06;21.32;63.82
72277;SHT30;61204;49.980;8.358;2023-06-19T03:38:32;21.31;63.81
72277;SHT30;61204;49.980;8.358;2023-06-19T03:41:00;21.28;64.37
72277;SHT30;61204;49.980;8.358;2023-06-19T03:43:26;21.28;64.62
72277;SHT30;61204;49.980;8.358;2023-06-19T03:45:51;21.21;65.15
72277;SHT30;61204;49.980;8.358;2023-06-19T03:48:17;21.20;65.93
72277;SHT30;61204;49.980;8.358;2023-06-19T03:50:43;21.15;66.10
72277;SHT30;61204;49.980;8.358;2023-06-19T03:53:08;21.17;66.18
72277;SHT30;61204;49.980;8.358;2023-06-19T03:55:34;21.30;65.93
72277;SHT30;61204;49.980;8.358;2023-06-19T03:58:00;21.42;65.65
72277;SHT30;61204;49.980;8.358;2023-06-19T04:00:25;21.40;65.43
72277;SHT30;61204;49.980;8.358;2023-06-19T04:02:53;21.40;65.57
72277;SHT30;61204;49.980;8.358;2023-06-19T04:05:19;21.40;65.64
72277;SHT30;61204;49.980;8.358;2023-06-19T04:07:47;21.40;65.71
72277;SHT30;61204;49.980;8.358;2023-06-19T04:10:13;21.40;65.80
72277;SHT30;61204;49.980;8.358;2023-06-19T04:12:38;21.37;66.13
72277;SHT30;61204;49.980;8.358;2023-06-19T04:15:06;21.34;66.47
72277;SHT30;61204;49.980;8.358;2023-06-19T04:17:32;21.35;66.23
72277;SHT30;61204;49.980;8.358;2023-06-19T04:19:58;21.45;66.19
72277;SHT30;61204;49.980;8.358;2023-06-19T04:22:25;21.49;66.23
72277;SHT30;61204;49.980;8.358;2023-06-19T04:24:53;21.48;66.08
72277;SHT30;61204;49.980;8.358;2023-06-19T04:27:19;21.59;65.88
72277;SHT30;61204;49.980;8.358;2023-06-19T04:29:44;21.58;65.76
72277;SHT30;61204;49.980;8.358;2023-06-19T04:32:10;21.65;65.94
72277;SHT30;61204;49.980;8.358;2023-06-19T04:34:39;21.72;65.77
72277;SHT30;61204;49.980;8.358;2023-06-19T04:37:05;21.83;65.41
72277;SHT30;61204;49.980;8.358;2023-06-19T04:39:30;21.83;65.81
72277;SHT30;61204;49.980;8.358;2023-06-19T04:41:56;21.90;65.13
72277;SHT30;61204;49.980;8.358;2023-06-19T04:44:21;21.95;65.02
72277;SHT30;61204;49.980;8.358;2023-06-19T04:46:47;21.90;65.26
72277;SHT30;61204;49.980;8.358;2023-06-19T04:49:13;21.93;65.83
72277;SHT30;61204;49.980;8.358;2023-06-19T04:51:40;22.09;64.59
72277;SHT30;61204;49.980;8.358;2023-06-19T04:54:06;22.27;64.38
72277;SHT30;61204;49.980;8.358;2023-06-19T04:56:31;22.37;63.95
72277;SHT30;61204;49.980;8.358;2023-06-19T04:58:59;22.65;62.51
72277;SHT30;61204;49.980;8.358;2023-06-19T05:01:26;22.79;62.16
72277;SHT30;61204;49.980;8.358;2023-06-19T05:03:56;22.79;62.49
72277;SHT30;61204;49.980;8.358;2023-06-19T05:06:25;22.96;62.30
72277;SHT30;61204;49.980;8.358;2023-06-19T05:08:51;23.00;61.73
72277;SHT30;61204;49.980;8.358;2023-06-19T05:11:17;23.14;61.48
72277;SHT30;61204;49.980;8.358;2023-06-19T05:13:43;23.20;61.57
72277;SHT30;61204;49.980;8.358;2023-06-19T05:16:11;23.34;61.25
72277;SHT30;61204;49.980;8.358;2023-06-19T05:18:42;23.44;61.23
72277;SHT30;61204;49.980;8.358;2023-06-19T05:21:09;23.47;61.08
72277;SHT30;61204;49.980;8.358;2023-06-19T05:23:36;23.38;61.60
72277;SHT30;61204;49.980;8.358;2023-06-19T05:26:03;23.31;61.88
72277;SHT30;61204;49.980;8.358;2023-06-19T05:28:29;23.20;62.36
72277;SHT30;61204;49.980;8.358;2023-06-19T05:30:58;23.24;62.12
72277;SHT30;61204;49.980;8.358;2023-06-19T05:33:24;23.53;61.79
72277;SHT30;61204;49.980;8.358;2023-06-19T05:35:49;23.46;62.00
72277;SHT30;61204;49.980;8.358;2023-06-19T05:38:18;23.55;61.83
72277;SHT30;61204;49.980;8.358;2023-06-19T05:40:44;23.46;62.57
72277;SHT30;61204;49.980;8.358;2023-06-19T05:43:09;23.62;61.62
72277;SHT30;61204;49.980;8.358;2023-06-19T05:45:37;23.72;61.64
72277;SHT30;61204;49.980;8.358;2023-06-19T05:48:03;23.89;61.60
72277;SHT30;61204;49.980;8.358;2023-06-19T05:50:29;23.99;60.78
72277;SHT30;61204;49.980;8.358;2023-06-19T05:52:56;23.99;60.94
72277;SHT30;61204;49.980;8.358;2023-06-19T05:55:21;24.05;60.87
72277;SHT30;61204;49.980;8.358;2023-06-19T05:57:47;24.12;60.84
72277;SHT30;61204;49.980;8.358;2023-06-19T06:00:13;24.33;60.22
72277;SHT30;61204;49.980;8.358;2023-06-19T06:02:40;24.30;60.06
72277;SHT30;61204;49.980;8.358;2023-06-19T06:05:06;24.19;60.72
72277;SHT30;61204;49.980;8.358;2023-06-19T06:07:35;24.33;60.89
72277;SHT30;61204;49.980;8.358;2023-06-19T06:10:00;23.83;61.51
72277;SHT30;61204;49.980;8.358;2023-06-19T06:12:29;23.83;61.74
72277;SHT30;61204;49.980;8.358;2023-06-19T06:14:54;23.59;62.31
72277;SHT30;61204;49.980;8.358;2023-06-19T06:17:20;23.76;61.88
72277;SHT30;61204;49.980;8.358;2023-06-19T06:19:45;23.85;62.04
72277;SHT30;61204;49.980;8.358;2023-06-19T06:22:13;23.78;62.47
72277;SHT30;61204;49.980;8.358;2023-06-19T06:24:38;23.76;62.60
72277;SHT30;61204;49.980;8.358;2023-06-19T06:27:06;23.85;62.97
72277;SHT30;61204;49.980;8.358;2023-06-19T06:29:32;23.74;63.00
72277;SHT30;61204;49.980;8.358;2023-06-19T06:32:07;23.95;62.37
72277;SHT30;61204;49.980;8.358;2023-06-19T06:34:34;24.02;62.17
72277;SHT30;61204;49.980;8.358;2023-06-19T06:37:00;24.06;61.30
72277;SHT30;61204;49.980;8.358;2023-06-19T06:39:27;23.93;61.82
72277;SHT30;61204;49.980;8.358;2023-06-19T06:41:53;23.88;62.29
72277;SHT30;61204;49.980;8.358;2023-06-19T06:44:19;23.81;62.85
72277;SHT30;61204;49.980;8.358;2023-06-19T06:46:44;23.92;62.22
72277;SHT30;61204;49.980;8.358;2023-06-19T06:49:11;24.34;61.41
72277;SHT30;61204;49.980;8.358;2023-06-19T06:51:37;24.71;60.68
72277;SHT30;61204;49.980;8.358;2023-06-19T06:54:02;25.16;59.18
72277;SHT30;61204;49.980;8.358;2023-06-19T06:56:28;25.43;58.16
72277;SHT30;61204;49.980;8.358;2023-06-19T06:58:53;25.68;57.40
72277;SHT30;61204;49.980;8.358;2023-06-19T07:01:19;25.70;57.13
72277;SHT30;61204;49.980;8.358;2023-06-19T07:03:44;25.92;56.43
72277;SHT30;61204;49.980;8.358;2023-06-19T07:06:10;25.93;56.40
72277;SHT30;61204;49.980;8.358;2023-06-19T07:08:38;25.86;56.91
72277;SHT30;61204;49.980;8.358;2023-06-19T07:11:08;26.09;56.59
72277;SHT30;61204;49.980;8.358;2023-06-19T07:13:34;26.36;56.07
72277;SHT30;61204;49.980;8.358;2023-06-19T07:15:59;26.36;55.18
72277;SHT30;61204;49.980;8.358;2023-06-19T07:18:26;26.09;55.88
72277;SHT30;61204;49.980;8.358;2023-06-19T07:20:52;26.12;56.22
72277;SHT30;61204;49.980;8.358;2023-06-19T07:23:20;26.25;55.52
72277;SHT30;61204;49.980;8.358;2023-06-19T07:25:46;26.25;55.32
72277;SHT30;61204;49.980;8.358;2023-06-19T07:28:12;26.05;56.06
72277;SHT30;61204;49.980;8.358;2023-06-19T07:30:39;26.08;55.35
72277;SHT30;61204;49.980;8.358;2023-06-19T07:33:05;25.98;55.51
72277;SHT30;61204;49.980;8.358;2023-06-19T07:35:30;26.00;55.80
72277;SHT30;61204;49.980;8.358;2023-06-19T07:37:56;26.09;55.40
72277;SHT30;61204;49.980;8.358;2023-06-19T07:40:21;26.29;55.07
72277;SHT30;61204;49.980;8.358;2023-06-19T07:42:46;26.45;54.42
72277;SHT30;61204;49.980;8.358;2023-06-19T07:45:12;26.62;54.93
72277;SHT30;61204;49.980;8.358;2023-06-19T07:47:38;26.92;54.22
72277;SHT30;61204;49.980;8.358;2023-06-19T07:50:07;26.82;54.15
72277;SHT30;61204;49.980;8.358;2023-06-19T07:52:32;26.84;53.37
72277;SHT30;61204;49.980;8.358;2023-06-19T07:55:00;26.91;52.96
72277;SHT30;61204;49.980;8.358;2023-06-19T07:57:26;27.30;52.52
72277;SHT30;61204;49.980;8.358;2023-06-19T07:59:54;27.54;52.20
72277;SHT30;61204;49.980;8.358;2023-06-19T08:02:20;27.80;51.56
72277;SHT30;61204;49.980;8.358;2023-06-19T08:04:46;28.05;50.72
72277;SHT30;61204;49.980;8.358;2023-06-19T08:07:12;28.04;50.80
72277;SHT30;61204;49.980;8.358;2023-06-19T08:09:37;28.43;50.29
72277;SHT30;61204;49.980;8.358;2023-06-19T08:12:03;29.06;48.14
72277;SHT30;61204;49.980;8.358;2023-06-19T08:14:29;29.51;47.02
72277;SHT30;61204;49.980;8.358;2023-06-19T08:16:55;29.97;46.28
72277;SHT30;61204;49.980;8.358;2023-06-19T08:19:20;29.95;45.78
72277;SHT30;61204;49.980;8.358;2023-06-19T08:21:45;30.01;46.42
72277;SHT30;61204;49.980;8.358;2023-06-19T08:24:11;30.18;45.29
72277;SHT30;61204;49.980;8.358;2023-06-19T08:26:36;30.02;45.46
72277;SHT30;61204;49.980;8.358;2023-06-19T08:29:04;29.51;46.82
72277;SHT30;61204;49.980;8.358;2023-06-19T08:31:30;29.43;47.11
72277;SHT30;61204;49.980;8.358;2023-06-19T08:33:56;29.29;48.04
72277;SHT30;61204;49.980;8.358;2023-06-19T08:36:22;29.30;47.33
72277;SHT30;61204;49.980;8.358;2023-06-19T08:38:47;29.74;46.83
72277;SHT30;61204;49.980;8.358;2023-06-19T08:41:18;30.47;45.75
72277;SHT30;61204;49.980;8.358;2023-06-19T08:43:46;29.51;47.29
72277;SHT30;61204;49.980;8.358;2023-06-19T08:46:15;30.67;44.92
72277;SHT30;61204;49.980;8.358;2023-06-19T08:48:45;31.32;44.05
72277;SHT30;61204;49.980;8.358;2023-06-19T08:51:11;31.49;43.76
72277;SHT30;61204;49.980;8.358;2023-06-19T08:53:47;31.47;43.26
72277;SHT30;61204;49.980;8.358;2023-06-19T08:56:15;31.45;43.35
72277;SHT30;61204;49.980;8.358;2023-06-19T08:58:41;30.77;45.06
72277;SHT30;61204;49.980;8.358;2023-06-19T09:01:06;30.41;45.88
72277;SHT30;61204;49.980;8.358;2023-06-19T09:03:32;31.64;43.13
72277;SHT30;61204;49.980;8.358;2023-06-19T09:06:03;32.27;42.06
72277;SHT30;61204;49.980;8.358;2023-06-19T09:08:29;32.24;41.82
72277;SHT30;61204;49.980;8.358;2023-06-19T09:10:59;32.31;42.12
72277;SHT30;61204;49.980;8.358;2023-06-19T09:13:29;32.48;41.61
72277;SHT30;61204;49.980;8.358;2023-06-19T09:16:06;32.18;41.92
72277;SHT30;61204;49.980;8.358;2023-06-19T09:18:47;32.21;42.18
72277;SHT30;61204;49.980;8.358;2023-06-19T09:21:21;32.40;41.72
72277;SHT30;61204;49.980;8.358;2023-06-19T09:23:50;32.33;41.63
72277;SHT30;61204;49.980;8.358;2023-06-19T09:26:19;31.81;41.93
72277;SHT30;61204;49.980;8.358;2023-06-19T09:28:47;30.87;44.57
72277;SHT30;61204;49.980;8.358;2023-06-19T09:31:18;30.99;44.45
72277;SHT30;61204;49.980;8.358;2023-06-19T09:33:44;31.54;43.39
72277;SHT30;61204;49.980;8.358;2023-06-19T09:36:09;32.24;42.25
72277;SHT30;61204;49.980;8.358;2023-06-19T09:38:38;32.46;41.36
72277;SHT30;61204;49.980;8.358;2023-06-19T09:41:06;32.69;40.43
72277;SHT30;61204;49.980;8.358;2023-06-19T09:43:39;32.31;41.05
72277;SHT30;61204;49.980;8.358;2023-06-19T09:46:07;32.00;41.64
72277;SHT30;61204;49.980;8.358;2023-06-19T09:48:35;31.22;43.51
72277;SHT30;61204;49.980;8.358;2023-06-19T09:51:12;32.12;42.09
72277;SHT30;61204;49.980;8.358;2023-06-19T09:53:44;31.84;42.41
72277;SHT30;61204;49.980;8.358;2023-06-19T09:56:15;31.98;42.30
72277;SHT30;61204;49.980;8.358;2023-06-19T09:58:43;31.23;43.31
72277;SHT30;61204;49.980;8.358;2023-06-19T10:01:10;32.08;41.70
72277;SHT30;61204;49.980;8.358;2023-06-19T10:03:36;32.12;41.32
72277;SHT30;61204;49.980;8.358;2023-06-19T10:06:03;31.93;42.52
72277;SHT30;61204;49.980;8.358;2023-06-19T10:08:40;31.53;42.90
72277;SHT30;61204;49.980;8.358;2023-06-19T10:11:08;31.46;42.21
72277;SHT30;61204;49.980;8.358;2023-06-19T10:13:40;30.96;43.42
72277;SHT30;61204;49.980;8.358;2023-06-19T10:16:26;31.29;41.91
72277;SHT30;61204;49.980;8.358;2023-06-19T10:18:53;31.80;40.67
72277;SHT30;61204;49.980;8.358;2023-06-19T10:21:20;31.74;40.91
72277;SHT30;61204;49.980;8.358;2023-06-19T10:24:03;31.62;40.44
72277;SHT30;61204;49.980;8.358;2023-06-19T10:26:35;31.81;40.84
72277;SHT30;61204;49.980;8.358;2023-06-19T10:29:01;31.30;43.98
72277;SHT30;61204;49.980;8.358;2023-06-19T10:31:38;32.01;42.98
72277;SHT30;61204;49.980;8.358;2023-06-19T10:34:04;31.73;42.36
72277;SHT30;61204;49.980;8.358;2023-06-19T10:36:29;32.21;42.35
72277;SHT30;61204;49.980;8.358;2023-06-19T10:38:55;32.63;41.76
72277;SHT30;61204;49.980;8.358;2023-06-19T10:41:24;32.72;41.83
72277;SHT30;61204;49.980;8.358;2023-06-19T10:46:34;34.17;37.84
72277;SHT30;61204;49.980;8.358;2023-06-19T10:49:05;34.24;36.85
72277;SHT30;61204;49.980;8.358;2023-06-19T10:51:40;33.35;37.62
72277;SHT30;61204;49.980;8.358;2023-06-19T10:54:09;32.55;39.90
72277;SHT30;61204;49.980;8.358;2023-06-19T10:56:35;32.00;41.58
72277;SHT30;61204;49.980;8.358;2023-06-19T10:59:08;31.53;42.52
72277;SHT30;61204;49.980;8.358;2023-06-19T11:01:38;31.33;43.55
72277;SHT30;61204;49.980;8.358;2023-06-19T11:04:09;31.83;41.74
72277;SHT30;61204;49.980;8.358;2023-06-19T11:06:36;31.15;43.60
72277;SHT30;61204;49.980;8.358;2023-06-19T11:09:04;30.52;45.04
72277;SHT30;61204;49.980;8.358;2023-06-19T11:11:46;30.83;44.11
72277;SHT30;61204;49.980;8.358;2023-06-19T11:14:16;30.52;45.08
72277;SHT30;61204;49.980;8.358;2023-06-19T11:16:47;30.29;46.54
72277;SHT30;61204;49.980;8.358;2023-06-19T11:19:21;30.32;46.92
72277;SHT30;61204;49.980;8.358;2023-06-19T11:21:51;30.63;46.44
72277;SHT30;61204;49.980;8.358;2023-06-19T11:24:18;31.18;45.21
72277;SHT30;61204;49.980;8.358;2023-06-19T11:26:47;31.63;44.13
72277;SHT30;61204;49.980;8.358;2023-06-19T11:29:24;31.87;44.42
72277;SHT30;61204;49.980;8.358;2023-06-19T11:31:51;32.66;43.36
72277;SHT30;61204;49.980;8.358;2023-06-19T11:34:19;32.53;40.01
72277;SHT30;61204;49.980;8.358;2023-06-19T11:36:48;32.83;41.03
72277;SHT30;61204;49.980;8.358;2023-06-19T11:39:16;32.96;40.48
72277;SHT30;61204;49.980;8.358;2023-06-19T11:41:45;32.63;40.96
72277;SHT30;61204;49.980;8.358;2023-06-19T11:44:10;33.48;39.75
72277;SHT30;61204;49.980;8.358;2023-06-19T11:46:37;34.66;36.81
72277;SHT30;61204;49.980;8.358;2023-06-19T11:51:35;33.94;37.08
72277;SHT30;61204;49.980;8.358;2023-06-19T11:54:09;33.52;37.68
72277;SHT30;61204;49.980;8.358;2023-06-19T11:56:39;33.66;36.95
72277;SHT30;61204;49.980;8.358;2023-06-19T11:59:06;34.18;36.21
72277;SHT30;61204;49.980;8.358;2023-06-19T12:01:33;34.21;36.13
72277;SHT30;61204;49.980;8.358;2023-06-19T12:04:00;34.58;36.89
72277;SHT30;61204;49.980;8.358;2023-06-19T12:06:27;34.80;35.47
72277;SHT30;61204;49.980;8.358;2023-06-19T12:08:53;33.83;37.62
72277;SHT30;61204;49.980;8.358;2023-06-19T12:11:19;34.08;36.27
72277;SHT30;61204;49.980;8.358;2023-06-19T12:13:45;34.25;36.30
72277;SHT30;61204;49.980;8.358;2023-06-19T12:16:11;34.10;36.20
72277;SHT30;61204;49.980;8.358;2023-06-19T12:18:37;33.85;36.02
72277;SHT30;61204;49.980;8.358;2023-06-19T12:21:03;33.66;36.77
72277;SHT30;61204;49.980;8.358;2023-06-19T12:23:31;33.76;37.03
72277;SHT30;61204;49.980;8.358;2023-06-19T12:25:56;34.04;36.88
72277;SHT30;61204;49.980;8.358;2023-06-19T12:28:22;34.18;37.09
72277;SHT30;61204;49.980;8.358;2023-06-19T12:30:48;34.55;35.04
72277;SHT30;61204;49.980;8.358;2023-06-19T12:33:19;34.52;35.42
72277;SHT30;61204;49.980;8.358;2023-06-19T12:35:48;34.10;36.24
72277;SHT30;61204;49.980;8.358;2023-06-19T12:38:13;34.17;36.63
72277;SHT30;61204;49.980;8.358;2023-06-19T12:40:39;34.37;35.70
72277;SHT30;61204;49.980;8.358;2023-06-19T12:43:05;34.87;34.46
72277;SHT30;61204;49.980;8.358;2023-06-19T12:45:30;35.13;34.24
72277;SHT30;61204;49.980;8.358;2023-06-19T12:47:56;34.58;34.69
72277;SHT30;61204;49.980;8.358;2023-06-19T12:50:22;34.20;35.06
72277;SHT30;61204;49.980;8.358;2023-06-19T12:52:48;34.61;36.32
72277;SHT30;61204;49.980;8.358;2023-06-19T12:55:14;35.26;34.30
72277;SHT30;61204;49.980;8.358;2023-06-19T12:57:42;35.03;33.51
72277;SHT30;61204;49.980;8.358;2023-06-19T13:00:10;34.66;34.10
72277;SHT30;61204;49.980;8.358;2023-06-19T13:02:37;34.25;34.17
72277;SHT30;61204;49.980;8.358;2023-06-19T13:05:05;33.86;34.98
72277;SHT30;61204;49.980;8.358;2023-06-19T13:07:31;33.58;36.27
72277;SHT30;61204;49.980;8.358;2023-06-19T13:09:58;33.07;36.99
72277;SHT30;61204;49.980;8.358;2023-06-19T13:12:23;33.39;36.18
72277;SHT30;61204;49.980;8.358;2023-06-19T13:14:49;32.60;37.17
72277;SHT30;61204;49.980;8.358;2023-06-19T13:17:14;33.58;36.36
72277;SHT30;61204;49.980;8.358;2023-06-19T13:19:40;34.38;35.10
72277;SHT30;61204;49.980;8.358;2023-06-19T13:22:05;34.03;35.73
72277;SHT30;61204;49.980;8.358;2023-06-19T13:24:31;34.82;34.29
72277;SHT30;61204;49.980;8.358;2023-06-19T13:26:57;35.00;32.87
72277;SHT30;61204;49.980;8.358;2023-06-19T13:29:25;35.11;33.91
72277;SHT30;61204;49.980;8.358;2023-06-19T13:31:55;35.49;34.08
72277;SHT30;61204;49.980;8.358;2023-06-19T13:34:20;34.83;33.09
72277;SHT30;61204;49.980;8.358;2023-06-19T13:36:47;35.33;32.98
72277;SHT30;61204;49.980;8.358;2023-06-19T13:39:13;35.75;32.99
72277;SHT30;61204;49.980;8.358;2023-06-19T13:41:39;35.44;33.52
72277;SHT30;61204;49.980;8.358;2023-06-19T13:44:04;34.25;34.61
72277;SHT30;61204;49.980;8.358;2023-06-19T13:46:32;33.68;34.58
72277;SHT30;61204;49.980;8.358;2023-06-19T13:48:58;33.83;34.85
72277;SHT30;61204;49.980;8.358;2023-06-19T13:51:24;33.83;34.99
72277;SHT30;61204;49.980;8.358;2023-06-19T13:53:50;32.90;35.31
72277;SHT30;61204;49.980;8.358;2023-06-19T13:56:17;32.60;36.96
72277;SHT30;61204;49.980;8.358;2023-06-19T13:58:42;33.01;36.56
72277;SHT30;61204;49.980;8.358;2023-06-19T14:01:08;33.39;34.90
72277;SHT30;61204;49.980;8.358;2023-06-19T14:03:37;33.65;34.84
72277;SHT30;61204;49.980;8.358;2023-06-19T14:06:05;33.29;34.95
72277;SHT30;61204;49.980;8.358;2023-06-19T14:08:31;33.66;33.83
72277;SHT30;61204;49.980;8.358;2023-06-19T14:10:58;33.41;34.62
72277;SHT30;61204;49.980;8.358;2023-06-19T14:13:24;32.98;35.78
72277;SHT30;61204;49.980;8.358;2023-06-19T14:15:49;34.08;32.85
72277;SHT30;61204;49.980;8.358;2023-06-19T14:18:16;33.39;34.04
72277;SHT30;61204;49.980;8.358;2023-06-19T14:20:41;33.58;33.93
72277;SHT30;61204;49.980;8.358;2023-06-19T14:23:09;33.94;33.69
72277;SHT30;61204;49.980;8.358;2023-06-19T14:25:34;33.94;33.56
72277;SHT30;61204;49.980;8.358;2023-06-19T14:28:00;34.32;33.26
72277;SHT30;61204;49.980;8.358;2023-06-19T14:30:26;34.99;31.59
72277;SHT30;61204;49.980;8.358;2023-06-19T14:32:56;35.68;30.80
72277;SHT30;61204;49.980;8.358;2023-06-19T14:35:22;35.79;30.31
72277;SHT30;61204;49.980;8.358;2023-06-19T14:37:47;35.57;30.18
72277;SHT30;61204;49.980;8.358;2023-06-19T14:40:12;34.76;31.85
72277;SHT30;61204;49.980;8.358;2023-06-19T14:42:38;35.37;31.13
72277;SHT30;61204;49.980;8.358;2023-06-19T14:45:04;36.07;30.48
72277;SHT30;61204;49.980;8.358;2023-06-19T14:47:29;35.45;31.08
72277;SHT30;61204;49.980;8.358;2023-06-19T14:50:00;34.44;31.80
72277;SHT30;61204;49.980;8.358;2023-06-19T14:52:26;34.53;31.87
72277;SHT30;61204;49.980;8.358;2023-06-19T14:54:54;34.65;31.91
72277;SHT30;61204;49.980;8.358;2023-06-19T14:57:21;34.99;31.43
72277;SHT30;61204;49.980;8.358;2023-06-19T14:59:49;34.97;31.17
72277;SHT30;61204;49.980;8.358;2023-06-19T15:02:15;34.53;31.43
72277;SHT30;61204;49.980;8.358;2023-06-19T15:04:42;34.03;32.07
72277;SHT30;61204;49.980;8.358;2023-06-19T15:07:08;33.58;32.64
72277;SHT30;61204;49.980;8.358;2023-06-19T15:09:33;33.36;33.32
72277;SHT30;61204;49.980;8.358;2023-06-19T15:11:59;33.27;33.24
72277;SHT30;61204;49.980;8.358;2023-06-19T15:14:24;32.59;34.56
72277;SHT30;61204;49.980;8.358;2023-06-19T15:16:50;32.69;34.54
72277;SHT30;61204;49.980;8.358;2023-06-19T15:19:15;32.86;34.51
72277;SHT30;61204;49.980;8.358;2023-06-19T15:21:41;32.14;35.36
72277;SHT30;61204;49.980;8.358;2023-06-19T15:24:11;32.05;36.01
72277;SHT30;61204;49.980;8.358;2023-06-19T15:26:37;32.33;35.35
72277;SHT30;61204;49.980;8.358;2023-06-19T15:29:02;32.36;35.43
72277;SHT30;61204;49.980;8.358;2023-06-19T15:31:28;32.40;35.73
72277;SHT30;61204;49.980;8.358;2023-06-19T15:33:55;32.10;36.08
72277;SHT30;61204;49.980;8.358;2023-06-19T15:36:21;32.32;36.26